sensor_id;sensor_type;location;lat;lon;timestamp;pressure;altitude;pressure_sealevel;temperature;humidity
35419;BME280;21525;41.240;16.500;2023-01-28T00:01:40;100857.50;;;13.33;66.33
35419;BME280;21525;41.240;16.500;2023-01-28T00:04:06;100862.50;;;13.44;64.89
35419;BME280;21525;41.240;16.500;2023-01-28T00:06:32;100866.81;;;13.03;65.62
35419;BME280;21525;41.240;16.500;2023-01-28T00:08:57;100865.06;;;13.04;65.21
35419;BME280;21525;41.240;16.500;2023-01-28T00:11:23;100862.06;;;12.81;66.13
35419;BME280;21525;41.240;16.500;2023-01-28T00:13:52;100866.59;;;13.16;64.85
35419;BME280;21525;41.240;16.500;2023-01-28T00:16:19;100870.91;;;13.18;66.01
35419;BME280;21525;41.240;16.500;2023-01-28T00:18:47;100867.19;;;12.87;66.85
35419;BME280;21525;41.240;16.500;2023-01-28T00:21:15;100868.78;;;12.94;66.03
35419;BME280;21525;41.240;16.500;2023-01-28T00:23:42;100869.78;;;12.87;66.73
35419;BME280;21525;41.240;16.500;2023-01-28T00:26:13;100867.38;;;13.21;64.93
35419;BME280;21525;41.240;16.500;2023-01-28T00:28:42;100863.50;;;12.97;66.71
35419;BME280;21525;41.240;16.500;2023-01-28T00:31:09;100864.13;;;13.08;65.69
35419;BME280;21525;41.240;16.500;2023-01-28T00:33:37;100868.94;;;12.86;65.30
35419;BME280;21525;41.240;16.500;2023-01-28T00:36:03;100873.00;;;12.56;66.86
35419;BME280;21525;41.240;16.500;2023-01-28T00:38:31;100872.22;;;12.96;65.74
35419;BME280;21525;41.240;16.500;2023-01-28T00:43:32;100877.56;;;12.90;65.59
35419;BME280;21525;41.240;16.500;2023-01-28T00:45:58;100877.25;;;12.62;66.84
35419;BME280;21525;41.240;16.500;2023-01-28T00:48:26;100882.22;;;12.74;66.17
35419;BME280;21525;41.240;16.500;2023-01-28T00:50:51;100881.81;;;12.95;65.25
35419;BME280;21525;41.240;16.500;2023-01-28T00:53:18;100879.88;;;13.03;65.08
35419;BME280;21525;41.240;16.500;2023-01-28T00:55:44;100889.81;;;12.86;65.10
35419;BME280;21525;41.240;16.500;2023-01-28T00:58:10;100894.44;;;13.15;63.60
35419;BME280;21525;41.240;16.500;2023-01-28T01:00:35;100892.84;;;13.08;64.33
35419;BME280;21525;41.240;16.500;2023-01-28T01:03:01;100894.75;;;13.00;63.44
35419;BME280;21525;41.240;16.500;2023-01-28T01:05:27;100907.66;;;12.64;65.28
35419;BME280;21525;41.240;16.500;2023-01-28T01:07:54;100907.00;;;12.98;65.56
35419;BME280;21525;41.240;16.500;2023-01-28T01:10:20;100912.22;;;13.39;63.18
35419;BME280;21525;41.240;16.500;2023-01-28T01:12:47;100913.47;;;13.23;62.81
35419;BME280;21525;41.240;16.500;2023-01-28T01:15:15;100913.59;;;13.17;64.01
35419;BME280;21525;41.240;16.500;2023-01-28T01:17:43;100913.00;;;13.01;65.16
35419;BME280;21525;41.240;16.500;2023-01-28T01:22:43;100922.13;;;13.25;63.39
35419;BME280;21525;41.240;16.500;2023-01-28T01:25:10;100919.59;;;12.76;64.03
35419;BME280;21525;41.240;16.500;2023-01-28T01:27:37;100927.75;;;13.04;64.52
35419;BME280;21525;41.240;16.500;2023-01-28T01:30:03;100924.72;;;12.81;64.68
35419;BME280;21525;41.240;16.500;2023-01-28T01:32:30;100920.75;;;12.61;65.41
35419;BME280;21525;41.240;16.500;2023-01-28T01:34:56;100916.81;;;12.85;64.33
35419;BME280;21525;41.240;16.500;2023-01-28T01:37:23;100917.19;;;12.67;65.17
35419;BME280;21525;41.240;16.500;2023-01-28T01:39:49;100922.25;;;13.19;63.42
35419;BME280;21525;41.240;16.500;2023-01-28T01:42:15;100923.81;;;12.83;64.62
35419;BME280;21525;41.240;16.500;2023-01-28T01:47:31;100922.50;;;13.05;64.21
35419;BME280;21525;41.240;16.500;2023-01-28T01:50:24;100925.78;;;12.70;65.54
35419;BME280;21525;41.240;16.500;2023-01-28T01:52:51;100930.50;;;12.50;65.90
35419;BME280;21525;41.240;16.500;2023-01-28T01:55:23;100926.81;;;12.63;65.23
35419;BME280;21525;41.240;16.500;2023-01-28T01:57:51;100920.41;;;12.79;64.95
35419;BME280;21525;41.240;16.500;2023-01-28T02:00:20;100931.94;;;13.12;63.82
35419;BME280;21525;41.240;16.500;2023-01-28T02:02:47;100926.34;;;12.88;64.70
35419;BME280;21525;41.240;16.500;2023-01-28T02:05:18;100934.09;;;12.92;64.00
35419;BME280;21525;41.240;16.500;2023-01-28T02:07:46;100940.34;;;12.82;64.80
35419;BME280;21525;41.240;16.500;2023-01-28T02:10:13;100933.09;;;12.99;63.83
35419;BME280;21525;41.240;16.500;2023-01-28T02:12:42;100934.00;;;12.49;65.88
35419;BME280;21525;41.240;16.500;2023-01-28T02:15:16;100936.59;;;12.98;64.03
35419;BME280;21525;41.240;16.500;2023-01-28T02:17:45;100939.16;;;12.54;64.63
35419;BME280;21525;41.240;16.500;2023-01-28T02:20:13;100942.03;;;12.37;65.58
35419;BME280;21525;41.240;16.500;2023-01-28T02:36:11;100929.16;;;12.75;65.61
35419;BME280;21525;41.240;16.500;2023-01-28T02:38:45;100922.22;;;13.21;63.94
35419;BME280;21525;41.240;16.500;2023-01-28T02:41:20;100926.44;;;12.82;64.65
35419;BME280;21525;41.240;16.500;2023-01-28T02:43:47;100923.22;;;13.12;63.30
35419;BME280;21525;41.240;16.500;2023-01-28T02:54:55;100930.72;;;12.86;63.97
35419;BME280;21525;41.240;16.500;2023-01-28T02:57:49;100927.50;;;13.18;63.85
35419;BME280;21525;41.240;16.500;2023-01-28T03:00:25;100928.81;;;12.95;64.81
35419;BME280;21525;41.240;16.500;2023-01-28T03:03:03;100932.84;;;13.10;63.90
35419;BME280;21525;41.240;16.500;2023-01-28T03:05:38;100937.00;;;12.75;65.33
35419;BME280;21525;41.240;16.500;2023-01-28T03:08:06;100940.22;;;12.90;64.72
35419;BME280;21525;41.240;16.500;2023-01-28T03:10:55;100940.38;;;12.81;64.39
35419;BME280;21525;41.240;16.500;2023-01-28T03:13:40;100934.56;;;12.16;67.87
35419;BME280;21525;41.240;16.500;2023-01-28T03:16:28;100941.59;;;12.63;65.39
35419;BME280;21525;41.240;16.500;2023-01-28T03:19:16;100943.19;;;12.21;66.92
35419;BME280;21525;41.240;16.500;2023-01-28T03:22:02;100937.66;;;12.39;66.80
35419;BME280;21525;41.240;16.500;2023-01-28T03:24:50;100930.84;;;12.79;66.10
35419;BME280;21525;41.240;16.500;2023-01-28T03:30:42;100948.69;;;12.55;66.00
35419;BME280;21525;41.240;16.500;2023-01-28T03:33:36;100944.63;;;12.86;65.55
35419;BME280;21525;41.240;16.500;2023-01-28T03:36:22;100940.44;;;12.77;65.45
35419;BME280;21525;41.240;16.500;2023-01-28T03:39:16;100938.25;;;12.55;65.92
35419;BME280;21525;41.240;16.500;2023-01-28T03:41:58;100943.56;;;12.50;65.55
35419;BME280;21525;41.240;16.500;2023-01-28T03:44:25;100948.44;;;12.68;65.13
35419;BME280;21525;41.240;16.500;2023-01-28T03:47:10;100952.06;;;12.61;65.47
35419;BME280;21525;41.240;16.500;2023-01-28T03:49:50;100951.81;;;12.26;67.04
35419;BME280;21525;41.240;16.500;2023-01-28T03:52:23;100960.69;;;12.65;66.58
35419;BME280;21525;41.240;16.500;2023-01-28T03:54:50;100960.63;;;12.17;66.46
35419;BME280;21525;41.240;16.500;2023-01-28T03:57:23;100956.00;;;12.34;66.70
35419;BME280;21525;41.240;16.500;2023-01-28T03:59:49;100952.16;;;12.55;66.93
35419;BME280;21525;41.240;16.500;2023-01-28T04:02:19;100956.84;;;12.84;64.86
35419;BME280;21525;41.240;16.500;2023-01-28T04:04:48;100969.53;;;12.56;66.29
35419;BME280;21525;41.240;16.500;2023-01-28T04:07:15;100964.44;;;12.98;63.72
35419;BME280;21525;41.240;16.500;2023-01-28T04:09:59;100970.81;;;12.34;65.84
35419;BME280;21525;41.240;16.500;2023-01-28T04:12:39;100966.66;;;12.71;65.12
35419;BME280;21525;41.240;16.500;2023-01-28T04:15:05;100977.63;;;12.41;64.79
35419;BME280;21525;41.240;16.500;2023-01-28T04:17:44;100968.38;;;12.72;64.71
35419;BME280;21525;41.240;16.500;2023-01-28T04:20:13;100974.16;;;12.39;65.34
35419;BME280;21525;41.240;16.500;2023-01-28T04:22:39;100978.94;;;12.66;65.47
35419;BME280;21525;41.240;16.500;2023-01-28T04:25:08;100984.34;;;12.56;64.37
35419;BME280;21525;41.240;16.500;2023-01-28T04:27:34;100985.81;;;12.70;64.48
35419;BME280;21525;41.240;16.500;2023-01-28T04:30:09;100998.16;;;12.05;65.99
35419;BME280;21525;41.240;16.500;2023-01-28T04:32:39;100997.56;;;12.43;65.21
35419;BME280;21525;41.240;16.500;2023-01-28T04:35:16;100996.81;;;12.35;65.46
35419;BME280;21525;41.240;16.500;2023-01-28T04:37:58;100993.78;;;12.64;65.03
35419;BME280;21525;41.240;16.500;2023-01-28T04:40:40;100997.09;;;12.71;63.67
35419;BME280;21525;41.240;16.500;2023-01-28T04:43:14;101007.66;;;12.11;65.17
35419;BME280;21525;41.240;16.500;2023-01-28T04:45:49;101005.97;;;12.62;64.97
35419;BME280;21525;41.240;16.500;2023-01-28T04:48:38;101014.69;;;12.61;64.84
35419;BME280;21525;41.240;16.500;2023-01-28T04:51:39;101014.94;;;12.46;64.74
35419;BME280;21525;41.240;16.500;2023-01-28T04:54:26;101011.47;;;12.45;65.62
35419;BME280;21525;41.240;16.500;2023-01-28T04:56:55;101015.94;;;12.37;65.63
35419;BME280;21525;41.240;16.500;2023-01-28T04:59:21;101018.91;;;12.68;65.90
35419;BME280;21525;41.240;16.500;2023-01-28T05:01:50;101012.91;;;12.63;64.79
35419;BME280;21525;41.240;16.500;2023-01-28T05:04:16;101014.09;;;12.96;63.17
35419;BME280;21525;41.240;16.500;2023-01-28T05:06:42;101019.06;;;12.59;64.71
35419;BME280;21525;41.240;16.500;2023-01-28T05:09:21;101021.41;;;12.21;65.46
35419;BME280;21525;41.240;16.500;2023-01-28T05:11:49;101020.66;;;12.14;66.05
35419;BME280;21525;41.240;16.500;2023-01-28T05:14:15;101032.19;;;11.98;66.51
35419;BME280;21525;41.240;16.500;2023-01-28T05:16:49;101022.81;;;12.43;64.79
35419;BME280;21525;41.240;16.500;2023-01-28T05:19:16;101022.59;;;12.01;65.90
35419;BME280;21525;41.240;16.500;2023-01-28T05:21:44;101024.66;;;12.35;64.70
35419;BME280;21525;41.240;16.500;2023-01-28T05:24:30;101018.16;;;12.63;63.98
35419;BME280;21525;41.240;16.500;2023-01-28T05:26:56;101030.44;;;11.98;66.28
35419;BME280;21525;41.240;16.500;2023-01-28T05:29:22;101029.25;;;12.19;65.60
35419;BME280;21525;41.240;16.500;2023-01-28T05:31:48;101036.00;;;12.34;65.62
35419;BME280;21525;41.240;16.500;2023-01-28T05:34:14;101034.88;;;12.50;64.56
35419;BME280;21525;41.240;16.500;2023-01-28T05:36:40;101032.47;;;12.36;64.68
35419;BME280;21525;41.240;16.500;2023-01-28T05:39:21;101041.34;;;12.26;64.31
35419;BME280;21525;41.240;16.500;2023-01-28T05:41:47;101043.91;;;12.29;65.09
35419;BME280;21525;41.240;16.500;2023-01-28T05:44:13;101048.88;;;12.43;65.67
35419;BME280;21525;41.240;16.500;2023-01-28T05:47:04;101053.00;;;12.01;66.48
35419;BME280;21525;41.240;16.500;2023-01-28T05:49:47;101056.91;;;12.31;65.16
35419;BME280;21525;41.240;16.500;2023-01-28T05:52:32;101049.63;;;12.53;65.09
35419;BME280;21525;41.240;16.500;2023-01-28T05:54:57;101052.13;;;12.59;63.72
35419;BME280;21525;41.240;16.500;2023-01-28T05:57:24;101056.88;;;12.34;64.38
35419;BME280;21525;41.240;16.500;2023-01-28T05:59:50;101052.16;;;12.57;64.19
35419;BME280;21525;41.240;16.500;2023-01-28T06:02:16;101062.63;;;11.96;66.10
35419;BME280;21525;41.240;16.500;2023-01-28T06:04:42;101062.00;;;12.38;64.85
35419;BME280;21525;41.240;16.500;2023-01-28T06:07:08;101070.38;;;12.02;65.00
35419;BME280;21525;41.240;16.500;2023-01-28T06:09:36;101069.22;;;12.21;65.13
35419;BME280;21525;41.240;16.500;2023-01-28T06:12:02;101069.13;;;12.29;65.42
35419;BME280;21525;41.240;16.500;2023-01-28T06:14:33;101077.13;;;12.15;65.61
35419;BME280;21525;41.240;16.500;2023-01-28T06:17:29;101075.88;;;12.40;64.61
35419;BME280;21525;41.240;16.500;2023-01-28T06:20:02;101075.59;;;12.60;63.76
35419;BME280;21525;41.240;16.500;2023-01-28T06:22:30;101084.00;;;12.21;64.69
35419;BME280;21525;41.240;16.500;2023-01-28T06:24:56;101087.13;;;12.45;64.14
35419;BME280;21525;41.240;16.500;2023-01-28T06:27:22;101089.50;;;12.62;63.21
35419;BME280;21525;41.240;16.500;2023-01-28T06:29:48;101084.94;;;12.15;64.56
35419;BME280;21525;41.240;16.500;2023-01-28T06:32:13;101088.56;;;12.66;63.14
35419;BME280;21525;41.240;16.500;2023-01-28T06:34:39;101087.38;;;12.84;63.22
35419;BME280;21525;41.240;16.500;2023-01-28T06:37:05;101093.22;;;12.44;63.61
35419;BME280;21525;41.240;16.500;2023-01-28T06:39:31;101094.25;;;13.85;61.18
35419;BME280;21525;41.240;16.500;2023-01-28T06:41:57;101097.38;;;15.13;57.23
35419;BME280;21525;41.240;16.500;2023-01-28T06:44:23;101090.72;;;15.67;54.46
35419;BME280;21525;41.240;16.500;2023-01-28T06:46:49;101101.06;;;16.02;52.93
35419;BME280;21525;41.240;16.500;2023-01-28T06:49:15;101102.16;;;16.81;49.68
35419;BME280;21525;41.240;16.500;2023-01-28T06:51:41;101101.84;;;17.89;48.45
35419;BME280;21525;41.240;16.500;2023-01-28T06:54:07;101094.44;;;18.45;47.94
35419;BME280;21525;41.240;16.500;2023-01-28T06:56:32;101101.00;;;18.12;46.03
35419;BME280;21525;41.240;16.500;2023-01-28T06:58:58;101096.38;;;19.86;43.12
35419;BME280;21525;41.240;16.500;2023-01-28T07:01:24;101106.19;;;20.02;42.07
35419;BME280;21525;41.240;16.500;2023-01-28T07:03:50;101112.59;;;20.16;41.79
35419;BME280;21525;41.240;16.500;2023-01-28T07:06:15;101104.97;;;20.09;42.49
35419;BME280;21525;41.240;16.500;2023-01-28T07:08:41;101095.59;;;21.29;39.74
35419;BME280;21525;41.240;16.500;2023-01-28T07:11:08;101098.09;;;20.62;41.32
35419;BME280;21525;41.240;16.500;2023-01-28T07:13:34;101091.88;;;21.99;39.17
35419;BME280;21525;41.240;16.500;2023-01-28T07:16:00;101092.16;;;22.26;36.67
35419;BME280;21525;41.240;16.500;2023-01-28T07:18:25;101093.13;;;23.02;36.81
35419;BME280;21525;41.240;16.500;2023-01-28T07:20:51;101109.88;;;21.60;37.47
35419;BME280;21525;41.240;16.500;2023-01-28T07:23:17;101111.53;;;21.45;38.34
35419;BME280;21525;41.240;16.500;2023-01-28T07:25:43;101120.97;;;20.63;38.58
35419;BME280;21525;41.240;16.500;2023-01-28T07:28:09;101128.88;;;20.25;39.93
35419;BME280;21525;41.240;16.500;2023-01-28T07:30:35;101130.31;;;20.13;40.54
35419;BME280;21525;41.240;16.500;2023-01-28T07:33:01;101123.97;;;21.60;38.76
35419;BME280;21525;41.240;16.500;2023-01-28T07:35:27;101134.50;;;21.27;38.39
35419;BME280;21525;41.240;16.500;2023-01-28T07:37:56;101123.91;;;21.95;37.63
35419;BME280;21525;41.240;16.500;2023-01-28T07:40:23;101127.00;;;23.41;35.45
35419;BME280;21525;41.240;16.500;2023-01-28T07:42:49;101132.97;;;23.61;34.86
35419;BME280;21525;41.240;16.500;2023-01-28T07:45:16;101129.31;;;24.47;34.64
35419;BME280;21525;41.240;16.500;2023-01-28T07:47:42;101123.09;;;26.29;32.00
35419;BME280;21525;41.240;16.500;2023-01-28T07:50:09;101145.63;;;24.28;33.54
35419;BME280;21525;41.240;16.500;2023-01-28T07:52:36;101150.78;;;24.58;34.02
35419;BME280;21525;41.240;16.500;2023-01-28T07:55:12;101141.06;;;24.98;32.93
35419;BME280;21525;41.240;16.500;2023-01-28T08:00:18;101155.28;;;24.70;33.56
35419;BME280;21525;41.240;16.500;2023-01-28T08:02:44;101149.25;;;26.11;30.12
35419;BME280;21525;41.240;16.500;2023-01-28T08:05:21;101149.31;;;27.19;29.52
35419;BME280;21525;41.240;16.500;2023-01-28T08:07:48;101155.75;;;24.22;33.32
35419;BME280;21525;41.240;16.500;2023-01-28T08:10:18;101167.75;;;22.33;35.25
35419;BME280;21525;41.240;16.500;2023-01-28T08:12:57;101170.25;;;20.64;38.04
35419;BME280;21525;41.240;16.500;2023-01-28T08:15:27;101172.38;;;20.74;38.46
35419;BME280;21525;41.240;16.500;2023-01-28T08:17:54;101175.44;;;20.28;38.88
35419;BME280;21525;41.240;16.500;2023-01-28T08:20:20;101179.97;;;19.24;41.28
35419;BME280;21525;41.240;16.500;2023-01-28T08:22:46;101175.16;;;20.34;39.81
35419;BME280;21525;41.240;16.500;2023-01-28T08:25:12;101189.94;;;18.96;42.00
35419;BME280;21525;41.240;16.500;2023-01-28T08:27:38;101187.06;;;18.57;42.87
35419;BME280;21525;41.240;16.500;2023-01-28T08:30:04;101182.56;;;20.46;40.47
35419;BME280;21525;41.240;16.500;2023-01-28T08:32:30;101180.75;;;21.19;38.69
35419;BME280;21525;41.240;16.500;2023-01-28T08:34:57;101178.28;;;21.16;38.42
35419;BME280;21525;41.240;16.500;2023-01-28T08:37:23;101183.81;;;21.80;37.75
35419;BME280;21525;41.240;16.500;2023-01-28T08:39:49;101188.41;;;21.07;38.83
35419;BME280;21525;41.240;16.500;2023-01-28T08:42:15;101192.25;;;20.06;40.52
35419;BME280;21525;41.240;16.500;2023-01-28T08:44:41;101192.66;;;19.36;41.51
35419;BME280;21525;41.240;16.500;2023-01-28T08:47:07;101206.09;;;18.65;42.94
35419;BME280;21525;41.240;16.500;2023-01-28T08:49:33;101211.63;;;18.57;43.56
35419;BME280;21525;41.240;16.500;2023-01-28T08:51:58;101213.53;;;18.30;44.06
35419;BME280;21525;41.240;16.500;2023-01-28T08:54:24;101209.06;;;18.32;43.99
35419;BME280;21525;41.240;16.500;2023-01-28T08:56:50;101217.88;;;17.57;45.59
35419;BME280;21525;41.240;16.500;2023-01-28T08:59:16;101212.91;;;18.47;44.47
35419;BME280;21525;41.240;16.500;2023-01-28T09:01:43;101212.84;;;18.72;44.06
35419;BME280;21525;41.240;16.500;2023-01-28T09:04:08;101223.69;;;18.86;44.26
35419;BME280;21525;41.240;16.500;2023-01-28T09:06:34;101215.59;;;18.45;44.43
35419;BME280;21525;41.240;16.500;2023-01-28T09:09:00;101223.56;;;18.44;45.17
35419;BME280;21525;41.240;16.500;2023-01-28T09:11:27;101233.69;;;17.83;45.93
35419;BME280;21525;41.240;16.500;2023-01-28T09:13:53;101227.28;;;18.15;45.98
35419;BME280;21525;41.240;16.500;2023-01-28T09:16:19;101232.16;;;18.49;45.35
35419;BME280;21525;41.240;16.500;2023-01-28T09:18:45;101231.00;;;18.33;45.44
35419;BME280;21525;41.240;16.500;2023-01-28T09:21:13;101242.31;;;18.11;46.27
35419;BME280;21525;41.240;16.500;2023-01-28T09:23:39;101225.00;;;18.98;45.70
35419;BME280;21525;41.240;16.500;2023-01-28T09:26:05;101224.56;;;18.87;45.24
35419;BME280;21525;41.240;16.500;2023-01-28T09:28:31;101224.97;;;19.41;44.17
35419;BME280;21525;41.240;16.500;2023-01-28T09:31:08;101215.78;;;19.50;43.87
35419;BME280;21525;41.240;16.500;2023-01-28T09:33:36;101231.16;;;19.83;43.35
35419;BME280;21525;41.240;16.500;2023-01-28T09:36:03;101235.66;;;19.81;43.94
35419;BME280;21525;41.240;16.500;2023-01-28T09:38:30;101231.38;;;18.92;44.96
35419;BME280;21525;41.240;16.500;2023-01-28T09:40:56;101231.38;;;19.14;44.48
35419;BME280;21525;41.240;16.500;2023-01-28T09:43:49;101242.03;;;18.89;44.57
35419;BME280;21525;41.240;16.500;2023-01-28T09:46:19;101235.81;;;18.45;46.08
35419;BME280;21525;41.240;16.500;2023-01-28T09:48:48;101232.53;;;18.38;46.47
35419;BME280;21525;41.240;16.500;2023-01-28T09:51:38;101239.69;;;18.35;46.84
35419;BME280;21525;41.240;16.500;2023-01-28T09:54:14;101241.03;;;18.22;46.23
35419;BME280;21525;41.240;16.500;2023-01-28T09:56:47;101241.91;;;18.70;45.67
35419;BME280;21525;41.240;16.500;2023-01-28T09:59:19;101230.16;;;18.54;45.55
35419;BME280;21525;41.240;16.500;2023-01-28T10:18:10;101232.31;;;18.44;47.25
35419;BME280;21525;41.240;16.500;2023-01-28T10:23:15;101239.69;;;18.58;47.11
35419;BME280;21525;41.240;16.500;2023-01-28T10:25:46;101237.38;;;18.96;46.79
35419;BME280;21525;41.240;16.500;2023-01-28T10:28:23;101229.47;;;19.82;45.24
35419;BME280;21525;41.240;16.500;2023-01-28T10:30:50;101225.59;;;20.67;43.88
35419;BME280;21525;41.240;16.500;2023-01-28T10:33:28;101219.28;;;20.32;44.00
35419;BME280;21525;41.240;16.500;2023-01-28T10:35:55;101222.34;;;20.98;43.01
35419;BME280;21525;41.240;16.500;2023-01-28T10:38:23;101217.47;;;20.71;43.09
35419;BME280;21525;41.240;16.500;2023-01-28T10:40:50;101222.41;;;19.40;44.04
35419;BME280;21525;41.240;16.500;2023-01-28T10:43:18;101215.84;;;20.30;44.14
35419;BME280;21525;41.240;16.500;2023-01-28T10:48:31;101221.25;;;20.27;43.10
35419;BME280;21525;41.240;16.500;2023-01-28T10:51:00;101212.75;;;20.59;42.37
35419;BME280;21525;41.240;16.500;2023-01-28T10:53:43;101216.38;;;19.99;43.44
35419;BME280;21525;41.240;16.500;2023-01-28T10:56:13;101217.75;;;19.67;44.06
35419;BME280;21525;41.240;16.500;2023-01-28T11:01:48;101214.56;;;20.95;42.19
35419;BME280;21525;41.240;16.500;2023-01-28T11:04:17;101213.78;;;20.36;42.71
35419;BME280;21525;41.240;16.500;2023-01-28T11:06:52;101214.47;;;20.41;43.17
35419;BME280;21525;41.240;16.500;2023-01-28T11:09:23;101211.41;;;20.11;43.85
35419;BME280;21525;41.240;16.500;2023-01-28T11:11:49;101211.69;;;19.85;44.13
35419;BME280;21525;41.240;16.500;2023-01-28T11:14:20;101208.63;;;19.54;44.66
35419;BME280;21525;41.240;16.500;2023-01-28T11:16:46;101206.19;;;19.49;44.99
35419;BME280;21525;41.240;16.500;2023-01-28T11:19:13;101207.72;;;19.55;44.53
35419;BME280;21525;41.240;16.500;2023-01-28T11:21:39;101206.47;;;19.63;44.76
35419;BME280;21525;41.240;16.500;2023-01-28T11:24:13;101211.69;;;19.01;45.63
35419;BME280;21525;41.240;16.500;2023-01-28T11:26:43;101209.22;;;20.01;44.22
35419;BME280;21525;41.240;16.500;2023-01-28T11:31:48;101205.06;;;19.95;43.94
35419;BME280;21525;41.240;16.500;2023-01-28T11:34:18;101192.72;;;20.35;43.49
35419;BME280;21525;41.240;16.500;2023-01-28T11:36:52;101199.94;;;20.31;43.51
35419;BME280;21525;41.240;16.500;2023-01-28T11:39:24;101194.81;;;19.69;44.73
35419;BME280;21525;41.240;16.500;2023-01-28T11:41:52;101195.34;;;19.77;44.98
35419;BME280;21525;41.240;16.500;2023-01-28T11:44:23;101194.84;;;20.27;44.31
35419;BME280;21525;41.240;16.500;2023-01-28T12:00:08;101185.47;;;20.20;44.10
35419;BME280;21525;41.240;16.500;2023-01-28T12:13:52;101189.13;;;19.78;44.91
35419;BME280;21525;41.240;16.500;2023-01-28T12:33:58;101182.19;;;20.14;44.24
35419;BME280;21525;41.240;16.500;2023-01-28T12:42:36;101178.41;;;20.01;43.88
35419;BME280;21525;41.240;16.500;2023-01-28T12:45:14;101181.44;;;20.50;43.13
35419;BME280;21525;41.240;16.500;2023-01-28T12:47:48;101185.47;;;20.59;42.78
35419;BME280;21525;41.240;16.500;2023-01-28T12:50:30;101177.88;;;19.93;43.88
35419;BME280;21525;41.240;16.500;2023-01-28T12:53:02;101182.91;;;19.99;43.76
35419;BME280;21525;41.240;16.500;2023-01-28T12:55:44;101185.00;;;20.11;43.70
35419;BME280;21525;41.240;16.500;2023-01-28T12:58:16;101181.34;;;19.55;44.76
35419;BME280;21525;41.240;16.500;2023-01-28T13:00:48;101184.72;;;19.78;44.76
35419;BME280;21525;41.240;16.500;2023-01-28T13:03:24;101190.84;;;19.79;44.45
35419;BME280;21525;41.240;16.500;2023-01-28T13:06:01;101184.50;;;20.22;44.10
35419;BME280;21525;41.240;16.500;2023-01-28T13:08:29;101191.16;;;19.92;44.48
35419;BME280;21525;41.240;16.500;2023-01-28T13:11:00;101193.06;;;19.88;44.79
35419;BME280;21525;41.240;16.500;2023-01-28T13:13:37;101199.09;;;19.71;44.76
35419;BME280;21525;41.240;16.500;2023-01-28T13:16:06;101202.28;;;19.79;44.43
35419;BME280;21525;41.240;16.500;2023-01-28T13:21:50;101214.13;;;19.69;45.01
35419;BME280;21525;41.240;16.500;2023-01-28T13:24:05;101206.69;;;19.37;45.68
35419;BME280;21525;41.240;16.500;2023-01-28T13:29:08;101215.09;;;19.46;45.70
35419;BME280;21525;41.240;16.500;2023-01-28T13:31:46;101219.66;;;19.84;44.99
35419;BME280;21525;41.240;16.500;2023-01-28T13:34:42;101223.75;;;19.28;46.09
35419;BME280;21525;41.240;16.500;2023-01-28T13:37:21;101213.91;;;19.54;45.79
35419;BME280;21525;41.240;16.500;2023-01-28T13:39:51;101223.25;;;19.40;45.86
35419;BME280;21525;41.240;16.500;2023-01-28T13:42:25;101237.88;;;19.27;46.17
35419;BME280;21525;41.240;16.500;2023-01-28T13:44:51;101227.13;;;19.32;46.51
35419;BME280;21525;41.240;16.500;2023-01-28T13:47:32;101237.81;;;19.07;46.57
35419;BME280;21525;41.240;16.500;2023-01-28T13:50:02;101238.09;;;19.21;46.66
35419;BME280;21525;41.240;16.500;2023-01-28T13:52:31;101222.75;;;19.53;45.93
35419;BME280;21525;41.240;16.500;2023-01-28T13:55:04;101236.31;;;19.22;46.62
35419;BME280;21525;41.240;16.500;2023-01-28T14:19:28;101260.19;;;19.19;48.09
35419;BME280;21525;41.240;16.500;2023-01-28T14:21:56;101262.66;;;19.01;47.61
35419;BME280;21525;41.240;16.500;2023-01-28T14:24:22;101270.13;;;19.12;47.66
35419;BME280;21525;41.240;16.500;2023-01-28T14:27:15;101269.09;;;19.16;47.73
35419;BME280;21525;41.240;16.500;2023-01-28T14:32:25;101270.97;;;18.91;48.24
35419;BME280;21525;41.240;16.500;2023-01-28T14:34:54;101275.88;;;18.78;48.66
35419;BME280;21525;41.240;16.500;2023-01-28T14:37:27;101278.16;;;19.09;48.18
35419;BME280;21525;41.240;16.500;2023-01-28T14:40:12;101271.28;;;18.60;48.52
35419;BME280;21525;41.240;16.500;2023-01-28T14:42:42;101275.59;;;18.37;44.27
35419;BME280;21525;41.240;16.500;2023-01-28T14:45:25;101274.78;;;17.59;41.73
35419;BME280;21525;41.240;16.500;2023-01-28T14:48:05;101274.59;;;18.17;41.19
35419;BME280;21525;41.240;16.500;2023-01-28T14:56:21;101283.84;;;18.03;40.49
35419;BME280;21525;41.240;16.500;2023-01-28T14:58:57;101285.94;;;17.67;40.16
35419;BME280;21525;41.240;16.500;2023-01-28T15:01:26;101301.78;;;18.17;39.32
35419;BME280;21525;41.240;16.500;2023-01-28T15:03:52;101300.66;;;17.99;39.92
35419;BME280;21525;41.240;16.500;2023-01-28T15:06:21;101290.13;;;17.99;40.12
35419;BME280;21525;41.240;16.500;2023-01-28T15:09:05;101294.41;;;18.27;39.44
35419;BME280;21525;41.240;16.500;2023-01-28T15:11:31;101294.47;;;18.25;39.48
35419;BME280;21525;41.240;16.500;2023-01-28T15:13:58;101298.31;;;17.90;39.48
35419;BME280;21525;41.240;16.500;2023-01-28T15:16:26;101293.03;;;18.17;39.20
35419;BME280;21525;41.240;16.500;2023-01-28T15:18:58;101301.84;;;18.16;38.26
35419;BME280;21525;41.240;16.500;2023-01-28T15:21:26;101302.31;;;17.77;39.82
35419;BME280;21525;41.240;16.500;2023-01-28T15:23:55;101302.97;;;18.08;39.23
35419;BME280;21525;41.240;16.500;2023-01-28T15:26:24;101303.00;;;18.32;39.35